OHPAS LOWW-LOWI
Flight info
| Callsign | OHPAS |
|---|---|
| Flight time | N/A |
| Altitude | 22000 |
| Route | SOVIL2B/16 SOVIL DCT SITNI DCT BAGSI DCT NANIT NANIT2A |
| Aircraft | PC12/L-SDFGRWY/S |
Departure
| Time | N/A |
|---|---|
| Airport | Vienna International Airport (LOWW) |
Arrival
| Time | 2026-05-06 20:13 |
|---|---|
| Airport | Innsbruck Airport (LOWI) |
| Time | Latitude | Longitude | Altitude | Speed | Heading |
|---|---|---|---|---|---|
| 2026-05-06 19:09 | 48.04517 | 15.85632 | 17309 ft | 180 kts | 264° |
| 2026-05-06 19:09 | 48.04526 | 15.83788 | 17711 ft | 176 kts | 264° |
| 2026-05-06 19:09 | 48.04533 | 15.81962 | 18103 ft | 175 kts | 264° |
| 2026-05-06 19:09 | 48.04539 | 15.80144 | 18454 ft | 175 kts | 263° |
| 2026-05-06 19:10 | 48.04547 | 15.78325 | 18808 ft | 174 kts | 263° |
| 2026-05-06 19:10 | 48.04554 | 15.76529 | 19165 ft | 173 kts | 263° |
| 2026-05-06 19:10 | 48.04560 | 15.74763 | 19530 ft | 172 kts | 263° |
| 2026-05-06 19:10 | 48.04565 | 15.72947 | 19848 ft | 174 kts | 263° |
| 2026-05-06 19:11 | 48.04572 | 15.71146 | 20176 ft | 175 kts | 263° |
| 2026-05-06 19:11 | 48.04579 | 15.69321 | 20494 ft | 176 kts | 263° |
| 2026-05-06 19:11 | 48.04584 | 15.67488 | 20823 ft | 177 kts | 263° |
| 2026-05-06 19:11 | 48.04590 | 15.65644 | 21163 ft | 178 kts | 263° |
| 2026-05-06 19:12 | 48.04595 | 15.63791 | 21497 ft | 179 kts | 263° |
| 2026-05-06 19:12 | 48.04599 | 15.61923 | 21731 ft | 184 kts | 262° |
| 2026-05-06 19:12 | 48.04601 | 15.59930 | 21735 ft | 199 kts | 263° |
| 2026-05-06 19:12 | 48.04607 | 15.57802 | 21745 ft | 210 kts | 264° |
| 2026-05-06 19:13 | 48.04615 | 15.55572 | 21743 ft | 219 kts | 264° |
| 2026-05-06 19:13 | 48.04621 | 15.53262 | 21751 ft | 226 kts | 264° |
| 2026-05-06 19:13 | 48.04627 | 15.50889 | 21739 ft | 231 kts | 264° |
| 2026-05-06 19:13 | 48.04631 | 15.48506 | 21742 ft | 235 kts | 264° |
| 2026-05-06 19:14 | 48.04635 | 15.46000 | 21745 ft | 238 kts | 264° |
| 2026-05-06 19:14 | 48.04637 | 15.43543 | 21741 ft | 240 kts | 264° |
| 2026-05-06 19:14 | 48.04640 | 15.41035 | 21742 ft | 242 kts | 264° |
| 2026-05-06 19:14 | 48.04641 | 15.38508 | 21742 ft | 244 kts | 264° |
| 2026-05-06 19:15 | 48.04684 | 15.35962 | 21745 ft | 244 kts | 265° |
| 2026-05-06 19:15 | 48.04716 | 15.33417 | 21741 ft | 245 kts | 265° |
| 2026-05-06 19:15 | 48.04742 | 15.30863 | 21741 ft | 246 kts | 265° |
| 2026-05-06 19:15 | 48.04784 | 15.28299 | 21741 ft | 247 kts | 265° |
| 2026-05-06 19:16 | 48.04829 | 15.25724 | 21742 ft | 248 kts | 265° |
| 2026-05-06 19:16 | 48.04870 | 15.23187 | 21739 ft | 247 kts | 265° |
| 2026-05-06 19:16 | 48.04909 | 15.20620 | 21740 ft | 247 kts | 265° |
| 2026-05-06 19:16 | 48.04948 | 15.18052 | 21741 ft | 247 kts | 265° |
| 2026-05-06 19:17 | 48.04986 | 15.15485 | 21742 ft | 247 kts | 265° |
| 2026-05-06 19:17 | 48.05025 | 15.12907 | 21741 ft | 248 kts | 265° |
| 2026-05-06 19:17 | 48.05062 | 15.10328 | 21735 ft | 248 kts | 265° |
| 2026-05-06 19:17 | 48.05099 | 15.07756 | 21739 ft | 247 kts | 265° |
| 2026-05-06 19:18 | 48.05136 | 15.05179 | 21739 ft | 247 kts | 265° |
| 2026-05-06 19:18 | 48.05172 | 15.02611 | 21737 ft | 247 kts | 265° |
| 2026-05-06 19:18 | 48.05207 | 15.00044 | 21737 ft | 247 kts | 265° |
| 2026-05-06 19:18 | 48.05241 | 14.97487 | 21738 ft | 247 kts | 265° |
| 2026-05-06 19:19 | 48.05275 | 14.94956 | 21740 ft | 246 kts | 265° |
| 2026-05-06 19:19 | 48.05308 | 14.92398 | 21734 ft | 246 kts | 265° |
| 2026-05-06 19:19 | 48.05341 | 14.89838 | 21736 ft | 246 kts | 265° |
| 2026-05-06 19:19 | 48.05373 | 14.87274 | 21734 ft | 246 kts | 265° |
| 2026-05-06 19:20 | 48.05405 | 14.84722 | 21735 ft | 245 kts | 265° |
| 2026-05-06 19:20 | 48.05435 | 14.82169 | 21733 ft | 245 kts | 264° |
| 2026-05-06 19:20 | 48.05456 | 14.79619 | 21733 ft | 245 kts | 264° |
| 2026-05-06 19:20 | 48.05475 | 14.77070 | 21733 ft | 245 kts | 264° |
| 2026-05-06 19:21 | 48.05496 | 14.74518 | 21732 ft | 245 kts | 264° |
| 2026-05-06 19:21 | 48.05517 | 14.71971 | 21731 ft | 245 kts | 264° |
| 2026-05-06 19:21 | 48.05531 | 14.70287 | 21732 ft | 245 kts | 264° |
| 2026-05-06 19:21 | 48.05557 | 14.66873 | 21735 ft | 245 kts | 264° |
| 2026-05-06 19:22 | 48.05569 | 14.65190 | 21736 ft | 245 kts | 264° |
| 2026-05-06 19:22 | 48.05588 | 14.62641 | 21734 ft | 244 kts | 264° |
| 2026-05-06 19:22 | 48.05605 | 14.60111 | 21733 ft | 244 kts | 264° |
| 2026-05-06 19:22 | 48.05623 | 14.57595 | 21741 ft | 244 kts | 264° |
| 2026-05-06 19:23 | 48.05640 | 14.55059 | 21744 ft | 244 kts | 264° |
| 2026-05-06 19:23 | 48.05656 | 14.52524 | 21741 ft | 244 kts | 264° |
| 2026-05-06 19:23 | 48.05671 | 14.49993 | 21748 ft | 244 kts | 264° |
| 2026-05-06 19:23 | 48.05686 | 14.47464 | 21749 ft | 243 kts | 264° |
| 2026-05-06 19:24 | 48.05701 | 14.44937 | 21752 ft | 243 kts | 264° |
| 2026-05-06 19:24 | 48.05715 | 14.42407 | 21754 ft | 243 kts | 263° |
| 2026-05-06 19:24 | 48.05728 | 14.39885 | 21759 ft | 242 kts | 263° |
| 2026-05-06 19:24 | 48.05741 | 14.37356 | 21762 ft | 242 kts | 263° |
| 2026-05-06 19:25 | 48.05753 | 14.34866 | 21760 ft | 243 kts | 263° |
| 2026-05-06 19:25 | 48.05765 | 14.32310 | 21762 ft | 243 kts | 263° |
| 2026-05-06 19:25 | 48.05734 | 14.29827 | 21763 ft | 239 kts | 257° |
| 2026-05-06 19:25 | 48.05290 | 14.27493 | 21764 ft | 232 kts | 241° |
| 2026-05-06 19:26 | 48.04576 | 14.25337 | 21765 ft | 231 kts | 239° |
| 2026-05-06 19:26 | 48.03866 | 14.23187 | 21764 ft | 231 kts | 240° |
| 2026-05-06 19:26 | 48.03157 | 14.21032 | 21763 ft | 231 kts | 240° |
| 2026-05-06 19:26 | 48.02445 | 14.18874 | 21764 ft | 231 kts | 240° |
| 2026-05-06 19:27 | 48.01732 | 14.16722 | 21767 ft | 231 kts | 240° |
| 2026-05-06 19:27 | 48.01020 | 14.14569 | 21767 ft | 232 kts | 240° |
| 2026-05-06 19:27 | 48.00304 | 14.12409 | 21767 ft | 232 kts | 240° |
| 2026-05-06 19:27 | 47.99606 | 14.10305 | 21766 ft | 232 kts | 240° |
| 2026-05-06 19:28 | 47.98873 | 14.08096 | 21768 ft | 232 kts | 240° |
| 2026-05-06 19:28 | 47.98165 | 14.05964 | 21761 ft | 232 kts | 240° |
| 2026-05-06 19:28 | 47.97446 | 14.03804 | 21767 ft | 232 kts | 240° |
| 2026-05-06 19:28 | 47.96729 | 14.01648 | 21781 ft | 232 kts | 240° |
| 2026-05-06 19:29 | 47.96012 | 13.99494 | 21783 ft | 231 kts | 240° |
| 2026-05-06 19:29 | 47.95295 | 13.97345 | 21779 ft | 231 kts | 240° |
| 2026-05-06 19:29 | 47.94580 | 13.95200 | 21784 ft | 231 kts | 240° |
| 2026-05-06 19:29 | 47.93862 | 13.93050 | 21782 ft | 232 kts | 240° |
| 2026-05-06 19:30 | 47.93142 | 13.90895 | 21784 ft | 232 kts | 240° |
| 2026-05-06 19:30 | 47.92419 | 13.88734 | 21781 ft | 233 kts | 240° |
| 2026-05-06 19:30 | 47.91695 | 13.86572 | 21781 ft | 233 kts | 240° |
| 2026-05-06 19:30 | 47.90970 | 13.84407 | 21786 ft | 233 kts | 240° |
| 2026-05-06 19:31 | 47.90247 | 13.82250 | 21786 ft | 232 kts | 240° |
| 2026-05-06 19:31 | 47.89524 | 13.80098 | 21793 ft | 232 kts | 240° |
| 2026-05-06 19:31 | 47.88079 | 13.75796 | 21799 ft | 232 kts | 239° |
| 2026-05-06 19:32 | 47.87363 | 13.73667 | 21803 ft | 233 kts | 240° |
| 2026-05-06 19:32 | 47.86629 | 13.71486 | 21799 ft | 232 kts | 240° |
| 2026-05-06 19:32 | 47.85907 | 13.69344 | 21809 ft | 232 kts | 240° |
| 2026-05-06 19:32 | 47.85183 | 13.67196 | 21815 ft | 232 kts | 240° |
| 2026-05-06 19:33 | 47.84458 | 13.65051 | 21818 ft | 232 kts | 240° |
| 2026-05-06 19:33 | 47.83733 | 13.62903 | 21820 ft | 233 kts | 240° |
| 2026-05-06 19:33 | 47.83018 | 13.60783 | 21827 ft | 228 kts | 240° |
| 2026-05-06 19:33 | 47.82302 | 13.58667 | 21826 ft | 229 kts | 240° |
| 2026-05-06 19:34 | 47.81584 | 13.56550 | 21829 ft | 229 kts | 240° |
| 2026-05-06 19:34 | 47.80863 | 13.54426 | 21830 ft | 230 kts | 240° |
| 2026-05-06 19:34 | 47.80142 | 13.52297 | 21838 ft | 231 kts | 240° |
| 2026-05-06 19:34 | 47.79416 | 13.50165 | 21842 ft | 231 kts | 240° |
| 2026-05-06 19:35 | 47.78685 | 13.48033 | 21848 ft | 231 kts | 239° |
| 2026-05-06 19:35 | 47.77947 | 13.45895 | 21829 ft | 233 kts | 239° |
| 2026-05-06 19:35 | 47.77194 | 13.43734 | 21574 ft | 240 kts | 239° |
| 2026-05-06 19:35 | 47.76410 | 13.41503 | 21321 ft | 246 kts | 239° |
| 2026-05-06 19:36 | 47.75609 | 13.39238 | 21066 ft | 249 kts | 239° |
| 2026-05-06 19:36 | 47.74798 | 13.36954 | 20832 ft | 251 kts | 238° |
| 2026-05-06 19:36 | 47.73975 | 13.34649 | 20570 ft | 253 kts | 239° |
| 2026-05-06 19:36 | 47.73145 | 13.32329 | 20324 ft | 254 kts | 239° |
| 2026-05-06 19:37 | 47.72311 | 13.30004 | 20076 ft | 255 kts | 239° |
| 2026-05-06 19:37 | 47.71514 | 13.27635 | 19829 ft | 258 kts | 242° |
| 2026-05-06 19:37 | 47.70824 | 13.25216 | 19595 ft | 259 kts | 244° |
| 2026-05-06 19:37 | 47.70125 | 13.22741 | 19359 ft | 260 kts | 244° |
| 2026-05-06 19:38 | 47.69415 | 13.20263 | 19116 ft | 261 kts | 243° |
| 2026-05-06 19:38 | 47.68605 | 13.17867 | 18883 ft | 258 kts | 236° |
| 2026-05-06 19:38 | 47.67654 | 13.15600 | 18647 ft | 259 kts | 236° |
| 2026-05-06 19:38 | 47.66752 | 13.13276 | 18414 ft | 261 kts | 239° |
| 2026-05-06 19:39 | 47.65939 | 13.10860 | 18182 ft | 262 kts | 241° |
| 2026-05-06 19:39 | 47.65135 | 13.08433 | 17915 ft | 263 kts | 240° |
| 2026-05-06 19:39 | 47.64303 | 13.06019 | 17649 ft | 262 kts | 240° |
| 2026-05-06 19:39 | 47.63465 | 13.03619 | 17374 ft | 261 kts | 240° |
| 2026-05-06 19:40 | 47.62634 | 13.01223 | 17106 ft | 261 kts | 240° |
| 2026-05-06 19:40 | 47.61810 | 12.98835 | 16888 ft | 260 kts | 240° |
| 2026-05-06 19:40 | 47.61112 | 12.96446 | 16872 ft | 253 kts | 252° |
| 2026-05-06 19:40 | 47.60879 | 12.93860 | 16875 ft | 253 kts | 261° |
| 2026-05-06 19:41 | 47.60794 | 12.91261 | 16877 ft | 252 kts | 263° |
| 2026-05-06 19:41 | 47.60735 | 12.88665 | 16879 ft | 251 kts | 263° |
| 2026-05-06 19:41 | 47.60681 | 12.86064 | 16697 ft | 256 kts | 263° |
| 2026-05-06 19:41 | 47.60623 | 12.83406 | 16443 ft | 261 kts | 263° |
| 2026-05-06 19:42 | 47.60558 | 12.80697 | 16188 ft | 265 kts | 263° |
| 2026-05-06 19:42 | 47.60491 | 12.77963 | 15921 ft | 267 kts | 263° |
| 2026-05-06 19:42 | 47.60424 | 12.75235 | 15873 ft | 263 kts | 263° |
| 2026-05-06 19:42 | 47.60349 | 12.72553 | 15868 ft | 256 kts | 261° |
| 2026-05-06 19:43 | 47.60197 | 12.69959 | 15864 ft | 250 kts | 260° |
| 2026-05-06 19:43 | 47.60038 | 12.67396 | 15865 ft | 248 kts | 260° |
| 2026-05-06 19:43 | 47.59888 | 12.64863 | 15863 ft | 246 kts | 260° |
| 2026-05-06 19:43 | 47.59740 | 12.62340 | 15867 ft | 246 kts | 260° |
| 2026-05-06 19:44 | 47.59587 | 12.59808 | 15865 ft | 247 kts | 260° |
| 2026-05-06 19:44 | 47.59432 | 12.57299 | 15865 ft | 248 kts | 260° |
| 2026-05-06 19:44 | 47.59275 | 12.54750 | 15860 ft | 248 kts | 260° |
| 2026-05-06 19:44 | 47.59121 | 12.52204 | 15861 ft | 247 kts | 260° |
| 2026-05-06 19:45 | 47.58969 | 12.49672 | 15866 ft | 247 kts | 260° |
| 2026-05-06 19:45 | 47.58812 | 12.47111 | 15680 ft | 254 kts | 260° |
| 2026-05-06 19:45 | 47.58646 | 12.44487 | 15424 ft | 257 kts | 260° |
| 2026-05-06 19:45 | 47.58476 | 12.41847 | 15185 ft | 259 kts | 260° |
| 2026-05-06 19:46 | 47.58302 | 12.39171 | 14938 ft | 261 kts | 260° |
| 2026-05-06 19:46 | 47.58125 | 12.36493 | 14696 ft | 262 kts | 260° |
| 2026-05-06 19:46 | 47.57944 | 12.33802 | 14449 ft | 262 kts | 260° |
| 2026-05-06 19:46 | 47.57767 | 12.31124 | 14197 ft | 260 kts | 260° |
| 2026-05-06 19:47 | 47.57591 | 12.28455 | 13971 ft | 260 kts | 260° |
| 2026-05-06 19:47 | 47.57412 | 12.25846 | 13735 ft | 256 kts | 260° |
| 2026-05-06 19:47 | 47.57229 | 12.23235 | 13482 ft | 255 kts | 260° |
| 2026-05-06 19:47 | 47.57045 | 12.20610 | 13211 ft | 256 kts | 259° |
| 2026-05-06 19:48 | 47.56863 | 12.17982 | 12943 ft | 257 kts | 260° |
| 2026-05-06 19:48 | 47.56679 | 12.15378 | 12851 ft | 250 kts | 260° |
| 2026-05-06 19:48 | 47.56503 | 12.12853 | 12853 ft | 246 kts | 260° |
| 2026-05-06 19:48 | 47.56328 | 12.10338 | 12851 ft | 245 kts | 260° |
| 2026-05-06 19:49 | 47.56153 | 12.07825 | 12850 ft | 245 kts | 260° |
| 2026-05-06 19:49 | 47.55979 | 12.05319 | 12849 ft | 244 kts | 260° |
| 2026-05-06 19:49 | 47.55803 | 12.02825 | 12850 ft | 244 kts | 260° |
| 2026-05-06 19:49 | 47.55628 | 12.00322 | 12850 ft | 244 kts | 260° |
| 2026-05-06 19:50 | 47.55455 | 11.97854 | 12845 ft | 244 kts | 260° |
| 2026-05-06 19:50 | 47.55278 | 11.95360 | 12850 ft | 244 kts | 260° |
| 2026-05-06 19:50 | 47.55101 | 11.92866 | 12851 ft | 244 kts | 260° |
| 2026-05-06 19:50 | 47.54921 | 11.90350 | 12844 ft | 246 kts | 260° |
| 2026-05-06 19:51 | 47.54745 | 11.87829 | 12839 ft | 246 kts | 260° |
| 2026-05-06 19:51 | 47.54569 | 11.85316 | 12838 ft | 243 kts | 260° |
| 2026-05-06 19:51 | 47.54383 | 11.82842 | 12838 ft | 242 kts | 260° |
| 2026-05-06 19:51 | 47.54198 | 11.80396 | 12839 ft | 242 kts | 260° |
| 2026-05-06 19:52 | 47.54014 | 11.77908 | 12849 ft | 245 kts | 260° |
| 2026-05-06 19:52 | 47.53827 | 11.75395 | 12842 ft | 247 kts | 260° |
| 2026-05-06 19:52 | 47.53655 | 11.73059 | 12843 ft | 245 kts | 260° |
| 2026-05-06 19:52 | 47.53473 | 11.70561 | 12846 ft | 245 kts | 260° |
| 2026-05-06 19:53 | 47.53296 | 11.68139 | 12836 ft | 244 kts | 261° |
| 2026-05-06 19:53 | 47.53107 | 11.65654 | 12840 ft | 243 kts | 259° |
| 2026-05-06 19:53 | 47.52923 | 11.63166 | 12853 ft | 243 kts | 260° |
| 2026-05-06 19:53 | 47.52740 | 11.60661 | 12844 ft | 245 kts | 260° |
| 2026-05-06 19:54 | 47.52550 | 11.58147 | 12830 ft | 246 kts | 261° |
| 2026-05-06 19:54 | 47.52354 | 11.55700 | 12841 ft | 241 kts | 260° |
| 2026-05-06 19:54 | 47.52179 | 11.53227 | 12841 ft | 242 kts | 261° |
| 2026-05-06 19:54 | 47.52019 | 11.50739 | 12841 ft | 244 kts | 261° |
| 2026-05-06 19:55 | 47.51861 | 11.48236 | 12837 ft | 244 kts | 261° |
| 2026-05-06 19:55 | 47.51701 | 11.45737 | 12842 ft | 245 kts | 261° |
| 2026-05-06 19:55 | 47.51539 | 11.43229 | 12838 ft | 246 kts | 261° |
| 2026-05-06 19:55 | 47.51378 | 11.40704 | 12836 ft | 246 kts | 261° |
| 2026-05-06 19:56 | 47.51206 | 11.38187 | 12838 ft | 245 kts | 260° |
| 2026-05-06 19:56 | 47.51010 | 11.35679 | 12840 ft | 245 kts | 260° |
| 2026-05-06 19:56 | 47.50813 | 11.33177 | 12839 ft | 245 kts | 260° |
| 2026-05-06 19:56 | 47.50616 | 11.30669 | 12842 ft | 245 kts | 260° |
| 2026-05-06 19:57 | 47.50417 | 11.28166 | 12841 ft | 245 kts | 260° |
| 2026-05-06 19:57 | 47.50217 | 11.25658 | 12845 ft | 246 kts | 260° |
| 2026-05-06 19:57 | 47.50018 | 11.23182 | 12849 ft | 246 kts | 260° |
| 2026-05-06 19:57 | 47.49812 | 11.20661 | 12847 ft | 247 kts | 260° |
| 2026-05-06 19:58 | 47.49606 | 11.18138 | 12848 ft | 247 kts | 260° |
| 2026-05-06 19:58 | 47.49537 | 11.17282 | 12847 ft | 247 kts | 260° |
| 2026-05-06 19:58 | 47.49460 | 11.16340 | 12848 ft | 247 kts | 260° |
| 2026-05-06 19:58 | 47.49255 | 11.13814 | 12851 ft | 248 kts | 260° |
| 2026-05-06 19:59 | 47.48953 | 11.11315 | 12862 ft | 245 kts | 252° |
| 2026-05-06 19:59 | 47.48464 | 11.08928 | 12857 ft | 243 kts | 250° |
| 2026-05-06 19:59 | 47.47993 | 11.06565 | 12859 ft | 242 kts | 251° |
| 2026-05-06 19:59 | 47.47527 | 11.04200 | 12860 ft | 242 kts | 251° |
| 2026-05-06 20:00 | 47.47050 | 11.01824 | 12860 ft | 242 kts | 251° |
| 2026-05-06 20:00 | 47.46572 | 10.99439 | 12863 ft | 241 kts | 251° |
| 2026-05-06 20:00 | 47.46099 | 10.97075 | 12864 ft | 240 kts | 251° |
| 2026-05-06 20:00 | 47.45626 | 10.94707 | 12856 ft | 239 kts | 251° |
| 2026-05-06 20:01 | 47.45155 | 10.92346 | 12870 ft | 240 kts | 251° |
| 2026-05-06 20:01 | 47.44669 | 10.89916 | 12469 ft | 252 kts | 251° |
| 2026-05-06 20:01 | 47.44155 | 10.87387 | 12093 ft | 261 kts | 251° |
| 2026-05-06 20:01 | 47.43635 | 10.84835 | 11726 ft | 257 kts | 251° |
| 2026-05-06 20:02 | 47.43124 | 10.82310 | 11338 ft | 256 kts | 251° |
| 2026-05-06 20:02 | 47.42548 | 10.79853 | 10971 ft | 249 kts | 239° |
| 2026-05-06 20:02 | 47.41380 | 10.78084 | 10709 ft | 238 kts | 209° |
| 2026-05-06 20:02 | 47.39825 | 10.77575 | 10643 ft | 225 kts | 176° |
| 2026-05-06 20:03 | 47.38344 | 10.78010 | 10648 ft | 209 kts | 172° |
| 2026-05-06 20:03 | 47.36925 | 10.78259 | 10644 ft | 206 kts | 175° |
| 2026-05-06 20:03 | 47.35506 | 10.78513 | 10639 ft | 204 kts | 173° |
| 2026-05-06 20:03 | 47.34132 | 10.78811 | 10635 ft | 194 kts | 173° |
| 2026-05-06 20:04 | 47.32825 | 10.79103 | 10628 ft | 189 kts | 174° |
| 2026-05-06 20:04 | 47.31582 | 10.79521 | 10631 ft | 178 kts | 160° |
| 2026-05-06 20:04 | 47.30566 | 10.80529 | 10642 ft | 177 kts | 138° |
| 2026-05-06 20:04 | 47.29864 | 10.82097 | 10639 ft | 190 kts | 115° |
| 2026-05-06 20:05 | 47.29640 | 10.84074 | 10486 ft | 202 kts | 91° |
| 2026-05-06 20:05 | 47.29720 | 10.86090 | 10230 ft | 194 kts | 90° |
| 2026-05-06 20:05 | 47.29802 | 10.88029 | 9949 ft | 191 kts | 90° |
| 2026-05-06 20:05 | 47.29874 | 10.89912 | 9577 ft | 191 kts | 90° |
| 2026-05-06 20:06 | 47.29947 | 10.91847 | 9226 ft | 187 kts | 90° |
| 2026-05-06 20:06 | 47.30018 | 10.93751 | 8881 ft | 185 kts | 90° |
| 2026-05-06 20:06 | 47.30089 | 10.95647 | 8506 ft | 186 kts | 90° |
| 2026-05-06 20:06 | 47.30160 | 10.97549 | 8138 ft | 185 kts | 89° |
| 2026-05-06 20:07 | 47.30230 | 10.99431 | 7790 ft | 183 kts | 89° |
| 2026-05-06 20:07 | 47.30298 | 11.01282 | 7436 ft | 182 kts | 89° |
| 2026-05-06 20:07 | 47.30366 | 11.03131 | 7131 ft | 179 kts | 88° |
| 2026-05-06 20:07 | 47.30432 | 11.04939 | 6822 ft | 176 kts | 88° |
| 2026-05-06 20:08 | 47.30496 | 11.06711 | 6487 ft | 177 kts | 87° |
| 2026-05-06 20:08 | 47.30561 | 11.08518 | 6126 ft | 176 kts | 87° |
| 2026-05-06 20:08 | 47.30626 | 11.10308 | 5765 ft | 173 kts | 87° |
| 2026-05-06 20:08 | 47.30623 | 11.12053 | 5426 ft | 168 kts | 103° |
| 2026-05-06 20:09 | 47.30167 | 11.13614 | 5107 ft | 166 kts | 119° |
| 2026-05-06 20:09 | 47.29583 | 11.15030 | 5019 ft | 153 kts | 121° |
| 2026-05-06 20:09 | 47.29209 | 11.15918 | 4823 ft | 157 kts | 121° |
| 2026-05-06 20:09 | 47.28438 | 11.17763 | 4478 ft | 162 kts | 121° |
| 2026-05-06 20:10 | 47.27844 | 11.19206 | 4228 ft | 170 kts | 121° |
| 2026-05-06 20:10 | 47.27434 | 11.20204 | 4065 ft | 174 kts | 121° |
| 2026-05-06 20:10 | 47.26860 | 11.21769 | 3812 ft | 172 kts | 115° |
| 2026-05-06 20:10 | 47.26223 | 11.23837 | 3492 ft | 160 kts | 114° |
| 2026-05-06 20:11 | 47.25951 | 11.24831 | 3316 ft | 151 kts | 105° |
| 2026-05-06 20:11 | 47.25754 | 11.26719 | 3045 ft | 129 kts | 95° |
| 2026-05-06 20:11 | 47.25691 | 11.27567 | 2930 ft | 118 kts | 94° |
| 2026-05-06 20:11 | 47.25637 | 11.29143 | 2603 ft | 113 kts | 90° |
| 2026-05-06 20:12 | 47.25651 | 11.29889 | 2479 ft | 108 kts | 91° |
| 2026-05-06 20:12 | 47.25692 | 11.30980 | 2322 ft | 106 kts | 89° |
| 2026-05-06 20:12 | 47.25776 | 11.32022 | 2152 ft | 98 kts | 88° |
| 2026-05-06 20:12 | 47.25876 | 11.33005 | 1979 ft | 96 kts | 87° |
| 2026-05-06 20:13 | 47.25969 | 11.33901 | 1908 ft | 78 kts | 85° |
| 2026-05-06 20:13 | 47.26028 | 11.34538 | 1895 ft | 47 kts | 74° |
| 2026-05-06 20:13 | 47.26083 | 11.34974 | 1898 ft | 40 kts | 81° |
| 2026-05-06 20:13 | 47.26088 | 11.35245 | 1896 ft | 15 kts | 145° |
| 2026-05-06 20:14 | 47.25993 | 11.35274 | 1900 ft | 13 kts | 170° |
| 2026-05-06 20:14 | 47.25970 | 11.35279 | 1900 ft | 0 kts | 169° |
| 2026-05-06 20:15 | 47.25931 | 11.35299 | 1895 ft | 9 kts | 135° |
| 2026-05-06 20:15 | 47.25928 | 11.35365 | 1897 ft | 6 kts | 82° |
| 2026-05-06 20:15 | 47.25914 | 11.35414 | 1891 ft | 0 kts | 159° |
| 2026-05-06 20:16 | 47.25906 | 11.35407 | 1897 ft | 2 kts | 256° |
| 2026-05-06 20:16 | 47.25912 | 11.35364 | 1892 ft | 0 kts | 271° |